UAE862 OMDB-OOMS
Flight info
| Callsign | UAE862 |
|---|---|
| Flight time | 0h 49m |
| Altitude | 27000 |
| Route | ANVIX L223 TARDI N629 ELIVA DCT ITIKA |
| Aircraft | A359/H-SDE2E3GHIJ3J4J5LM1ORWXY/LB1D1 |
Departure
| Time | 2026-04-25 16:42 |
|---|---|
| Airport | Dubai International Airport (OMDB) |
Arrival
| Time | 2026-04-25 17:31 |
|---|---|
| Airport | Muscat International Airport (OOMS) |
| Time | Latitude | Longitude | Altitude | Speed | Heading |
|---|---|---|---|---|---|
| 2026-04-25 16:00 | 25.25058 | 55.35982 | 28 ft | 0 kts | 211° |
| 2026-04-25 16:27 | 25.25064 | 55.35986 | 28 ft | 4 kts | 211° |
| 2026-04-25 16:27 | 25.25084 | 55.35999 | 27 ft | 2 kts | 212° |
| 2026-04-25 16:28 | 25.25103 | 55.36014 | 26 ft | 4 kts | 225° |
| 2026-04-25 16:28 | 25.25119 | 55.36038 | 26 ft | 4 kts | 252° |
| 2026-04-25 16:28 | 25.25121 | 55.36066 | 25 ft | 4 kts | 283° |
| 2026-04-25 16:28 | 25.25112 | 55.36091 | 26 ft | 3 kts | 302° |
| 2026-04-25 16:29 | 25.25097 | 55.36116 | 26 ft | 4 kts | 302° |
| 2026-04-25 16:29 | 25.25088 | 55.36133 | 24 ft | 0 kts | 302° |
| 2026-04-25 16:33 | 25.25091 | 55.36128 | 26 ft | 3 kts | 302° |
| 2026-04-25 16:33 | 25.25114 | 55.36087 | 26 ft | 10 kts | 302° |
| 2026-04-25 16:33 | 25.25164 | 55.35999 | 28 ft | 17 kts | 301° |
| 2026-04-25 16:33 | 25.25234 | 55.35874 | 28 ft | 20 kts | 301° |
| 2026-04-25 16:34 | 25.25312 | 55.35734 | 27 ft | 22 kts | 302° |
| 2026-04-25 16:34 | 25.25398 | 55.35582 | 27 ft | 24 kts | 302° |
| 2026-04-25 16:34 | 25.25490 | 55.35418 | 27 ft | 26 kts | 302° |
| 2026-04-25 16:34 | 25.25582 | 55.35253 | 27 ft | 20 kts | 302° |
| 2026-04-25 16:35 | 25.25640 | 55.35160 | 27 ft | 14 kts | 319° |
| 2026-04-25 16:35 | 25.25726 | 55.35179 | 27 ft | 14 kts | 31° |
| 2026-04-25 16:35 | 25.25819 | 55.35242 | 28 ft | 17 kts | 31° |
| 2026-04-25 16:35 | 25.25927 | 55.35314 | 28 ft | 19 kts | 31° |
| 2026-04-25 16:36 | 25.26007 | 55.35432 | 29 ft | 20 kts | 78° |
| 2026-04-25 16:36 | 25.26009 | 55.35484 | 29 ft | 21 kts | 96° |
| 2026-04-25 16:36 | 25.25888 | 55.35736 | 29 ft | 24 kts | 122° |
| 2026-04-25 16:36 | 25.25800 | 55.35892 | 30 ft | 22 kts | 122° |
| 2026-04-25 16:37 | 25.25713 | 55.36047 | 30 ft | 25 kts | 122° |
| 2026-04-25 16:37 | 25.25618 | 55.36215 | 30 ft | 27 kts | 122° |
| 2026-04-25 16:37 | 25.25517 | 55.36395 | 30 ft | 29 kts | 122° |
| 2026-04-25 16:37 | 25.25417 | 55.36572 | 30 ft | 25 kts | 122° |
| 2026-04-25 16:38 | 25.25323 | 55.36741 | 30 ft | 27 kts | 122° |
| 2026-04-25 16:38 | 25.25222 | 55.36921 | 30 ft | 29 kts | 122° |
| 2026-04-25 16:38 | 25.25114 | 55.37114 | 31 ft | 30 kts | 122° |
| 2026-04-25 16:38 | 25.25008 | 55.37301 | 32 ft | 27 kts | 122° |
| 2026-04-25 16:39 | 25.24922 | 55.37455 | 32 ft | 24 kts | 122° |
| 2026-04-25 16:39 | 25.24830 | 55.37618 | 31 ft | 25 kts | 122° |
| 2026-04-25 16:39 | 25.24755 | 55.37752 | 31 ft | 14 kts | 122° |
| 2026-04-25 16:39 | 25.24702 | 55.37846 | 31 ft | 13 kts | 122° |
| 2026-04-25 16:40 | 25.24666 | 55.37923 | 31 ft | 8 kts | 93° |
| 2026-04-25 16:40 | 25.24698 | 55.37970 | 32 ft | 8 kts | 36° |
| 2026-04-25 16:40 | 25.24744 | 55.38003 | 34 ft | 7 kts | 31° |
| 2026-04-25 16:40 | 25.24783 | 55.38027 | 36 ft | 7 kts | 21° |
| 2026-04-25 16:41 | 25.24818 | 55.38006 | 36 ft | 6 kts | 298° |
| 2026-04-25 16:41 | 25.24851 | 55.37947 | 36 ft | 15 kts | 301° |
| 2026-04-25 16:41 | 25.25480 | 55.36814 | 35 ft | 154 kts | 301° |
| 2026-04-25 16:42 | 25.26078 | 55.35724 | 668 ft | 159 kts | 301° |
| 2026-04-25 16:42 | 25.26636 | 55.34688 | 1450 ft | 159 kts | 302° |
| 2026-04-25 16:42 | 25.27239 | 55.33584 | 1794 ft | 176 kts | 302° |
| 2026-04-25 16:42 | 25.27908 | 55.32379 | 2077 ft | 193 kts | 303° |
| 2026-04-25 16:43 | 25.28655 | 55.31060 | 2393 ft | 210 kts | 303° |
| 2026-04-25 16:43 | 25.29336 | 55.29575 | 2802 ft | 224 kts | 286° |
| 2026-04-25 16:43 | 25.29173 | 55.27869 | 3372 ft | 231 kts | 245° |
| 2026-04-25 16:43 | 25.28325 | 55.26360 | 4017 ft | 232 kts | 242° |
| 2026-04-25 16:44 | 25.27596 | 55.24759 | 4590 ft | 235 kts | 248° |
| 2026-04-25 16:44 | 25.26922 | 55.23131 | 5178 ft | 236 kts | 246° |
| 2026-04-25 16:44 | 25.26207 | 55.21493 | 5770 ft | 237 kts | 246° |
| 2026-04-25 16:44 | 25.25485 | 55.19843 | 6376 ft | 239 kts | 246° |
| 2026-04-25 16:45 | 25.24688 | 55.18223 | 6937 ft | 243 kts | 236° |
| 2026-04-25 16:45 | 25.23391 | 55.17016 | 7456 ft | 251 kts | 207° |
| 2026-04-25 16:45 | 25.21635 | 55.16669 | 7892 ft | 263 kts | 181° |
| 2026-04-25 16:45 | 25.19805 | 55.16946 | 8391 ft | 270 kts | 163° |
| 2026-04-25 16:46 | 25.18201 | 55.18015 | 8978 ft | 275 kts | 136° |
| 2026-04-25 16:46 | 25.17076 | 55.19783 | 9303 ft | 289 kts | 119° |
| 2026-04-25 16:46 | 25.16142 | 55.21788 | 9768 ft | 296 kts | 118° |
| 2026-04-25 16:46 | 25.15829 | 55.22475 | 9955 ft | 297 kts | 118° |
| 2026-04-25 16:47 | 25.14250 | 55.25877 | 10797 ft | 302 kts | 119° |
| 2026-04-25 16:47 | 25.13276 | 55.27941 | 11335 ft | 305 kts | 119° |
| 2026-04-25 16:47 | 25.12285 | 55.30025 | 11871 ft | 307 kts | 120° |
| 2026-04-25 16:47 | 25.11280 | 55.32117 | 12374 ft | 310 kts | 120° |
| 2026-04-25 16:48 | 25.10288 | 55.34204 | 12912 ft | 312 kts | 118° |
| 2026-04-25 16:48 | 25.09373 | 55.36392 | 13455 ft | 315 kts | 116° |
| 2026-04-25 16:48 | 25.08481 | 55.38621 | 13966 ft | 318 kts | 116° |
| 2026-04-25 16:48 | 25.07575 | 55.40867 | 14426 ft | 321 kts | 116° |
| 2026-04-25 16:49 | 25.06668 | 55.43128 | 14849 ft | 327 kts | 115° |
| 2026-04-25 16:49 | 25.05766 | 55.45489 | 15080 ft | 339 kts | 115° |
| 2026-04-25 16:49 | 25.04838 | 55.47932 | 15282 ft | 351 kts | 115° |
| 2026-04-25 16:49 | 25.03876 | 55.50452 | 15460 ft | 362 kts | 115° |
| 2026-04-25 16:50 | 25.02877 | 55.53055 | 15641 ft | 373 kts | 115° |
| 2026-04-25 16:50 | 25.01783 | 55.55683 | 15797 ft | 382 kts | 120° |
| 2026-04-25 16:50 | 25.00460 | 55.58248 | 16085 ft | 387 kts | 122° |
| 2026-04-25 16:50 | 24.99092 | 55.60777 | 16441 ft | 390 kts | 123° |
| 2026-04-25 16:51 | 24.97675 | 55.63388 | 16803 ft | 393 kts | 123° |
| 2026-04-25 16:51 | 24.96267 | 55.65985 | 17164 ft | 396 kts | 123° |
| 2026-04-25 16:51 | 24.94868 | 55.68566 | 17518 ft | 398 kts | 123° |
| 2026-04-25 16:51 | 24.94501 | 55.69221 | 17616 ft | 399 kts | 124° |
| 2026-04-25 16:52 | 24.91843 | 55.73401 | 18206 ft | 402 kts | 128° |
| 2026-04-25 16:52 | 24.90185 | 55.75895 | 18499 ft | 405 kts | 128° |
| 2026-04-25 16:52 | 24.88516 | 55.78402 | 18808 ft | 407 kts | 128° |
| 2026-04-25 16:52 | 24.86838 | 55.80927 | 19165 ft | 409 kts | 128° |
| 2026-04-25 16:53 | 24.83465 | 55.86006 | 19795 ft | 413 kts | 128° |
| 2026-04-25 16:53 | 24.81748 | 55.88553 | 20094 ft | 415 kts | 129° |
| 2026-04-25 16:53 | 24.80011 | 55.91108 | 20401 ft | 418 kts | 129° |
| 2026-04-25 16:54 | 24.78241 | 55.93599 | 20735 ft | 418 kts | 133° |
| 2026-04-25 16:54 | 24.76254 | 55.95950 | 21020 ft | 420 kts | 137° |
| 2026-04-25 16:54 | 24.74147 | 55.98192 | 21325 ft | 421 kts | 139° |
| 2026-04-25 16:54 | 24.71987 | 56.00376 | 21619 ft | 423 kts | 140° |
| 2026-04-25 16:55 | 24.69797 | 56.02555 | 21952 ft | 425 kts | 140° |
| 2026-04-25 16:55 | 24.67601 | 56.04750 | 22231 ft | 428 kts | 140° |
| 2026-04-25 16:55 | 24.65404 | 56.06968 | 22529 ft | 429 kts | 139° |
| 2026-04-25 16:55 | 24.63209 | 56.09202 | 22915 ft | 430 kts | 139° |
| 2026-04-25 16:56 | 24.61017 | 56.11447 | 23216 ft | 432 kts | 139° |
| 2026-04-25 16:56 | 24.58817 | 56.13708 | 23501 ft | 434 kts | 139° |
| 2026-04-25 16:56 | 24.56730 | 56.16065 | 23736 ft | 437 kts | 134° |
| 2026-04-25 16:56 | 24.54691 | 56.18553 | 23972 ft | 439 kts | 133° |
| 2026-04-25 16:57 | 24.52678 | 56.21080 | 24252 ft | 441 kts | 133° |
| 2026-04-25 16:57 | 24.51999 | 56.21942 | 24333 ft | 441 kts | 133° |
| 2026-04-25 16:57 | 24.48657 | 56.26212 | 24753 ft | 444 kts | 133° |
| 2026-04-25 16:57 | 24.46646 | 56.28785 | 24908 ft | 442 kts | 132° |
| 2026-04-25 16:58 | 24.44669 | 56.31315 | 24937 ft | 430 kts | 132° |
| 2026-04-25 16:58 | 24.42738 | 56.33779 | 24934 ft | 421 kts | 132° |
| 2026-04-25 16:58 | 24.40854 | 56.36178 | 24928 ft | 418 kts | 132° |
| 2026-04-25 16:58 | 24.38957 | 56.38589 | 24924 ft | 417 kts | 132° |
| 2026-04-25 16:59 | 24.37056 | 56.41001 | 24921 ft | 417 kts | 132° |
| 2026-04-25 16:59 | 24.35155 | 56.43411 | 24910 ft | 417 kts | 132° |
| 2026-04-25 16:59 | 24.33255 | 56.45820 | 24904 ft | 417 kts | 132° |
| 2026-04-25 16:59 | 24.31357 | 56.48225 | 24900 ft | 417 kts | 132° |
| 2026-04-25 17:00 | 24.29449 | 56.50645 | 24899 ft | 418 kts | 132° |
| 2026-04-25 17:00 | 24.27630 | 56.53136 | 24901 ft | 418 kts | 128° |
| 2026-04-25 17:00 | 24.25914 | 56.55721 | 24897 ft | 418 kts | 127° |
| 2026-04-25 17:00 | 24.24263 | 56.58305 | 24898 ft | 419 kts | 126° |
| 2026-04-25 17:01 | 24.22599 | 56.60921 | 24903 ft | 419 kts | 126° |
| 2026-04-25 17:01 | 24.20921 | 56.63532 | 24905 ft | 419 kts | 127° |
| 2026-04-25 17:01 | 24.19226 | 56.66136 | 24910 ft | 419 kts | 127° |
| 2026-04-25 17:01 | 24.17516 | 56.68734 | 24916 ft | 419 kts | 127° |
| 2026-04-25 17:02 | 24.16382 | 56.70444 | 24916 ft | 419 kts | 127° |
| 2026-04-25 17:02 | 24.14666 | 56.73024 | 24924 ft | 419 kts | 128° |
| 2026-04-25 17:02 | 24.12949 | 56.75599 | 24921 ft | 419 kts | 128° |
| 2026-04-25 17:02 | 24.11812 | 56.77303 | 24924 ft | 419 kts | 128° |
| 2026-04-25 17:03 | 24.09511 | 56.80749 | 24931 ft | 419 kts | 128° |
| 2026-04-25 17:03 | 24.07787 | 56.83333 | 24935 ft | 419 kts | 128° |
| 2026-04-25 17:03 | 24.06067 | 56.85908 | 24919 ft | 420 kts | 127° |
| 2026-04-25 17:03 | 24.04363 | 56.88460 | 24926 ft | 421 kts | 127° |
| 2026-04-25 17:04 | 24.02633 | 56.91054 | 24930 ft | 421 kts | 127° |
| 2026-04-25 17:04 | 24.00900 | 56.93648 | 24930 ft | 422 kts | 127° |
| 2026-04-25 17:04 | 23.99170 | 56.96233 | 24919 ft | 422 kts | 127° |
| 2026-04-25 17:04 | 23.97434 | 56.98822 | 24920 ft | 420 kts | 127° |
| 2026-04-25 17:05 | 23.95668 | 57.01453 | 24828 ft | 439 kts | 127° |
| 2026-04-25 17:05 | 23.91957 | 57.06978 | 24415 ft | 449 kts | 127° |
| 2026-04-25 17:05 | 23.90179 | 57.09776 | 23898 ft | 446 kts | 121° |
| 2026-04-25 17:06 | 23.88859 | 57.12840 | 23267 ft | 445 kts | 111° |
| 2026-04-25 17:06 | 23.87845 | 57.15980 | 22632 ft | 444 kts | 109° |
| 2026-04-25 17:06 | 23.86874 | 57.19175 | 22014 ft | 440 kts | 109° |
| 2026-04-25 17:06 | 23.85923 | 57.22348 | 21410 ft | 437 kts | 109° |
| 2026-04-25 17:07 | 23.84985 | 57.25491 | 20829 ft | 434 kts | 109° |
| 2026-04-25 17:07 | 23.84047 | 57.28617 | 20284 ft | 430 kts | 110° |
| 2026-04-25 17:07 | 23.82909 | 57.31581 | 19647 ft | 416 kts | 118° |
| 2026-04-25 17:07 | 23.81565 | 57.34357 | 18410 ft | 412 kts | 121° |
| 2026-04-25 17:08 | 23.80144 | 57.37094 | 16783 ft | 415 kts | 121° |
| 2026-04-25 17:08 | 23.78694 | 57.39834 | 15312 ft | 415 kts | 121° |
| 2026-04-25 17:08 | 23.77270 | 57.42515 | 13983 ft | 412 kts | 121° |
| 2026-04-25 17:08 | 23.75858 | 57.45170 | 13241 ft | 392 kts | 121° |
| 2026-04-25 17:09 | 23.74523 | 57.47677 | 12750 ft | 376 kts | 121° |
| 2026-04-25 17:09 | 23.73210 | 57.50139 | 12187 ft | 373 kts | 121° |
| 2026-04-25 17:09 | 23.71907 | 57.52581 | 11630 ft | 371 kts | 121° |
| 2026-04-25 17:09 | 23.70611 | 57.55006 | 11061 ft | 369 kts | 121° |
| 2026-04-25 17:10 | 23.69321 | 57.57422 | 10674 ft | 362 kts | 121° |
| 2026-04-25 17:10 | 23.68082 | 57.59740 | 10558 ft | 345 kts | 121° |
| 2026-04-25 17:10 | 23.66905 | 57.61943 | 10417 ft | 329 kts | 121° |
| 2026-04-25 17:10 | 23.65789 | 57.64029 | 10305 ft | 315 kts | 121° |
| 2026-04-25 17:11 | 23.64707 | 57.66050 | 10175 ft | 301 kts | 121° |
| 2026-04-25 17:11 | 23.63668 | 57.67991 | 10040 ft | 292 kts | 121° |
| 2026-04-25 17:11 | 23.62636 | 57.69917 | 9705 ft | 299 kts | 121° |
| 2026-04-25 17:11 | 23.61571 | 57.71901 | 9348 ft | 302 kts | 121° |
| 2026-04-25 17:12 | 23.60524 | 57.73854 | 9007 ft | 301 kts | 121° |
| 2026-04-25 17:12 | 23.59468 | 57.75823 | 8670 ft | 300 kts | 121° |
| 2026-04-25 17:12 | 23.58420 | 57.77783 | 8336 ft | 298 kts | 120° |
| 2026-04-25 17:12 | 23.57667 | 57.79869 | 8097 ft | 297 kts | 100° |
| 2026-04-25 17:13 | 23.57517 | 57.82096 | 7715 ft | 292 kts | 90° |
| 2026-04-25 17:13 | 23.57525 | 57.83557 | 7235 ft | 291 kts | 89° |
| 2026-04-25 17:13 | 23.57508 | 57.86513 | 6476 ft | 293 kts | 90° |
| 2026-04-25 17:13 | 23.57538 | 57.88726 | 6065 ft | 291 kts | 86° |
| 2026-04-25 17:14 | 23.57719 | 57.90901 | 5727 ft | 285 kts | 82° |
| 2026-04-25 17:14 | 23.57960 | 57.93022 | 5427 ft | 278 kts | 83° |
| 2026-04-25 17:14 | 23.58140 | 57.95100 | 5152 ft | 272 kts | 84° |
| 2026-04-25 17:14 | 23.58289 | 57.97132 | 4866 ft | 267 kts | 85° |
| 2026-04-25 17:15 | 23.58446 | 57.99106 | 4540 ft | 259 kts | 84° |
| 2026-04-25 17:15 | 23.58602 | 58.01007 | 4216 ft | 245 kts | 84° |
| 2026-04-25 17:15 | 23.58747 | 58.02815 | 3918 ft | 235 kts | 84° |
| 2026-04-25 17:15 | 23.58888 | 58.04584 | 3624 ft | 232 kts | 84° |
| 2026-04-25 17:16 | 23.59029 | 58.06326 | 3320 ft | 230 kts | 84° |
| 2026-04-25 17:16 | 23.59167 | 58.08057 | 3027 ft | 228 kts | 84° |
| 2026-04-25 17:16 | 23.59309 | 58.09774 | 2727 ft | 226 kts | 84° |
| 2026-04-25 17:16 | 23.59444 | 58.11478 | 2478 ft | 222 kts | 84° |
| 2026-04-25 17:17 | 23.59575 | 58.13102 | 2312 ft | 213 kts | 85° |
| 2026-04-25 17:17 | 23.59697 | 58.14677 | 2114 ft | 204 kts | 85° |
| 2026-04-25 17:17 | 23.59807 | 58.16188 | 1850 ft | 195 kts | 85° |
| 2026-04-25 17:17 | 23.59912 | 58.17599 | 1581 ft | 180 kts | 85° |
| 2026-04-25 17:18 | 23.60036 | 58.18905 | 1298 ft | 167 kts | 83° |
| 2026-04-25 17:18 | 23.60137 | 58.20123 | 1048 ft | 156 kts | 86° |
| 2026-04-25 17:18 | 23.60240 | 58.21258 | 855 ft | 145 kts | 85° |
| 2026-04-25 17:18 | 23.60315 | 58.22325 | 662 ft | 139 kts | 85° |
| 2026-04-25 17:19 | 23.60393 | 58.23382 | 511 ft | 140 kts | 83° |
| 2026-04-25 17:19 | 23.60486 | 58.24440 | 353 ft | 140 kts | 84° |
| 2026-04-25 17:19 | 23.60570 | 58.25496 | 151 ft | 140 kts | 83° |
| 2026-04-25 17:19 | 23.60654 | 58.26548 | 46 ft | 134 kts | 84° |
| 2026-04-25 17:20 | 23.60725 | 58.27510 | 289 ft | 137 kts | 85° |
| 2026-04-25 17:20 | 23.60799 | 58.28642 | 1044 ft | 160 kts | 86° |
| 2026-04-25 17:20 | 23.60894 | 58.29875 | 1815 ft | 165 kts | 85° |
| 2026-04-25 17:20 | 23.61009 | 58.31190 | 2078 ft | 182 kts | 84° |
| 2026-04-25 17:21 | 23.61272 | 58.32604 | 2298 ft | 201 kts | 65° |
| 2026-04-25 17:21 | 23.62246 | 58.33790 | 2471 ft | 223 kts | 29° |
| 2026-04-25 17:21 | 23.63771 | 58.34211 | 2868 ft | 232 kts | 356° |
| 2026-04-25 17:21 | 23.65271 | 58.33686 | 3448 ft | 233 kts | 327° |
| 2026-04-25 17:22 | 23.66556 | 58.32598 | 3869 ft | 235 kts | 318° |
| 2026-04-25 17:22 | 23.67378 | 58.31791 | 3992 ft | 236 kts | 317° |
| 2026-04-25 17:22 | 23.68977 | 58.30174 | 4036 ft | 237 kts | 316° |
| 2026-04-25 17:22 | 23.70156 | 58.28913 | 4021 ft | 238 kts | 309° |
| 2026-04-25 17:23 | 23.70905 | 58.27311 | 4021 ft | 237 kts | 287° |
| 2026-04-25 17:23 | 23.71093 | 58.25530 | 4032 ft | 238 kts | 268° |
| 2026-04-25 17:23 | 23.70980 | 58.23752 | 4022 ft | 238 kts | 265° |
| 2026-04-25 17:23 | 23.70818 | 58.21948 | 4023 ft | 239 kts | 265° |
| 2026-04-25 17:24 | 23.70650 | 58.20141 | 4030 ft | 239 kts | 264° |
| 2026-04-25 17:24 | 23.70482 | 58.18338 | 4032 ft | 239 kts | 265° |
| 2026-04-25 17:24 | 23.70307 | 58.16527 | 4035 ft | 243 kts | 264° |
| 2026-04-25 17:24 | 23.70127 | 58.14663 | 4028 ft | 249 kts | 264° |
| 2026-04-25 17:25 | 23.69944 | 58.12771 | 4020 ft | 250 kts | 265° |
| 2026-04-25 17:25 | 23.69764 | 58.10881 | 4034 ft | 251 kts | 265° |
| 2026-04-25 17:25 | 23.69585 | 58.09034 | 4015 ft | 243 kts | 264° |
| 2026-04-25 17:25 | 23.69201 | 58.07279 | 3844 ft | 235 kts | 243° |
| 2026-04-25 17:26 | 23.68133 | 58.05975 | 3557 ft | 234 kts | 212° |
| 2026-04-25 17:26 | 23.66570 | 58.05469 | 3325 ft | 240 kts | 181° |
| 2026-04-25 17:26 | 23.64963 | 58.05910 | 3112 ft | 242 kts | 150° |
| 2026-04-25 17:26 | 23.63672 | 58.07073 | 3031 ft | 242 kts | 134° |
| 2026-04-25 17:27 | 23.62519 | 58.08420 | 3028 ft | 242 kts | 132° |
| 2026-04-25 17:27 | 23.61410 | 58.09769 | 2994 ft | 243 kts | 131° |
| 2026-04-25 17:27 | 23.60300 | 58.11149 | 2700 ft | 240 kts | 131° |
| 2026-04-25 17:27 | 23.59954 | 58.11633 | 2620 ft | 238 kts | 125° |
| 2026-04-25 17:28 | 23.59542 | 58.14334 | 2584 ft | 207 kts | 75° |
| 2026-04-25 17:28 | 23.59888 | 58.15825 | 2223 ft | 198 kts | 73° |
| 2026-04-25 17:28 | 23.59971 | 58.17265 | 1909 ft | 184 kts | 91° |
| 2026-04-25 17:28 | 23.59985 | 58.18594 | 1645 ft | 168 kts | 83° |
| 2026-04-25 17:29 | 23.60127 | 58.19836 | 1352 ft | 161 kts | 84° |
| 2026-04-25 17:29 | 23.60220 | 58.21036 | 960 ft | 157 kts | 87° |
| 2026-04-25 17:29 | 23.60298 | 58.22199 | 709 ft | 149 kts | 84° |
| 2026-04-25 17:29 | 23.60390 | 58.23281 | 516 ft | 138 kts | 85° |
| 2026-04-25 17:30 | 23.60474 | 58.24323 | 356 ft | 140 kts | 84° |
| 2026-04-25 17:30 | 23.60560 | 58.25377 | 172 ft | 139 kts | 83° |
| 2026-04-25 17:30 | 23.60643 | 58.26419 | 41 ft | 133 kts | 83° |
| 2026-04-25 17:30 | 23.60714 | 58.27295 | 42 ft | 95 kts | 85° |
| 2026-04-25 17:31 | 23.60758 | 58.27863 | 40 ft | 68 kts | 85° |
| 2026-04-25 17:31 | 23.60782 | 58.28181 | 39 ft | 19 kts | 89° |
| 2026-04-25 17:31 | 23.60763 | 58.28327 | 41 ft | 20 kts | 103° |
| 2026-04-25 17:31 | 23.60722 | 58.28444 | 41 ft | 16 kts | 115° |
| 2026-04-25 17:32 | 23.60668 | 58.28503 | 41 ft | 9 kts | 188° |
| 2026-04-25 17:32 | 23.60630 | 58.28449 | 41 ft | 10 kts | 242° |
| 2026-04-25 17:32 | 23.60566 | 58.28430 | 40 ft | 11 kts | 176° |
| 2026-04-25 17:32 | 23.60480 | 58.28437 | 40 ft | 13 kts | 175° |
| 2026-04-25 17:33 | 23.60415 | 58.28449 | 40 ft | 8 kts | 147° |
| 2026-04-25 17:33 | 23.60408 | 58.28509 | 40 ft | 9 kts | 85° |
| 2026-04-25 17:33 | 23.60410 | 58.28540 | 40 ft | 1 kts | 85° |
| 2026-04-25 17:33 | 23.60412 | 58.28555 | 40 ft | 2 kts | 85° |
| 2026-04-25 17:34 | 23.60412 | 58.28560 | 40 ft | 0 kts | 85° |